Southbridge, Massachusetts
Current Conditions -  °F | °C
As of 4:54 PM on Monday 20 Oct 2014 (Local Time) from KORH Reporting Station
Overcast Overcast  
Wind Chill: 50°   Ceiling: 11000
Heat Index: 50°   Visibility: 10mi
Dew Point: 33°   Wind: 13mph
Humidity: 52%   Direction: 230°SW
Pressure: 29.97"   Gusts: NA
Location:  42.07°N, 72.03°W
Report Text: KORH 202054Z 23011KT 10SM OVC110 10/01 A2997 RMK AO2 SLP156 T01000006 55004
Loading
Personal Weather Stations






























Interactive Weather Map
Tropical Storm Tracking
New forecast layout! Learn more

10-Day Weather Forecast

Advertisements
Track Severe Weather on mobile